sensor_id;sensor_type;location;lat;lon;timestamp;pressure;altitude;pressure_sealevel;temperature;humidity
40592;BME280;26301;42.832;23.918;2022-11-15T00:00:50;93746.75;;;-0.26;100.00
40592;BME280;26301;42.832;23.918;2022-11-15T00:03:22;93747.00;;;-0.45;100.00
40592;BME280;26301;42.832;23.918;2022-11-15T00:05:48;93731.91;;;-0.47;100.00
40592;BME280;26301;42.832;23.918;2022-11-15T00:08:14;93729.38;;;-0.47;100.00
40592;BME280;26301;42.832;23.918;2022-11-15T00:10:39;93761.63;;;-0.31;100.00
40592;BME280;26301;42.832;23.918;2022-11-15T00:13:12;93732.38;;;-0.51;100.00
40592;BME280;26301;42.832;23.918;2022-11-15T00:15:39;93753.69;;;-0.36;100.00
40592;BME280;26301;42.832;23.918;2022-11-15T00:18:09;93725.06;;;-0.54;100.00
40592;BME280;26301;42.832;23.918;2022-11-15T00:20:37;93751.78;;;-0.42;100.00
40592;BME280;26301;42.832;23.918;2022-11-15T00:23:04;93745.56;;;-0.39;100.00
40592;BME280;26301;42.832;23.918;2022-11-15T00:25:35;93748.25;;;-0.49;100.00
40592;BME280;26301;42.832;23.918;2022-11-15T00:28:01;93721.81;;;-0.73;100.00
40592;BME280;26301;42.832;23.918;2022-11-15T00:30:27;93744.78;;;-0.48;100.00
40592;BME280;26301;42.832;23.918;2022-11-15T00:32:53;93715.03;;;-0.72;100.00
40592;BME280;26301;42.832;23.918;2022-11-15T00:35:22;93742.97;;;-0.56;100.00
40592;BME280;26301;42.832;23.918;2022-11-15T00:37:48;93743.81;;;-0.47;100.00
40592;BME280;26301;42.832;23.918;2022-11-15T00:40:14;93738.78;;;-0.39;100.00
40592;BME280;26301;42.832;23.918;2022-11-15T00:42:41;93743.19;;;-0.41;100.00
40592;BME280;26301;42.832;23.918;2022-11-15T00:45:08;93731.91;;;-0.47;100.00
40592;BME280;26301;42.832;23.918;2022-11-15T00:47:35;93740.31;;;-0.46;100.00
40592;BME280;26301;42.832;23.918;2022-11-15T00:50:01;93704.75;;;-0.62;100.00
40592;BME280;26301;42.832;23.918;2022-11-15T00:52:30;93732.88;;;-0.39;100.00
40592;BME280;26301;42.832;23.918;2022-11-15T00:55:05;93695.53;;;-0.63;100.00
40592;BME280;26301;42.832;23.918;2022-11-15T00:57:30;93730.50;;;-0.41;100.00
40592;BME280;26301;42.832;23.918;2022-11-15T00:59:56;93729.56;;;-0.40;100.00
40592;BME280;26301;42.832;23.918;2022-11-15T01:02:22;93720.84;;;-0.37;100.00
40592;BME280;26301;42.832;23.918;2022-11-15T01:04:48;93725.16;;;-0.30;100.00
40592;BME280;26301;42.832;23.918;2022-11-15T01:07:14;93718.34;;;-0.29;100.00
40592;BME280;26301;42.832;23.918;2022-11-15T01:09:39;93702.09;;;-0.44;100.00
40592;BME280;26301;42.832;23.918;2022-11-15T01:12:05;93694.28;;;-0.59;100.00
40592;BME280;26301;42.832;23.918;2022-11-15T01:14:31;93712.09;;;-0.43;100.00
40592;BME280;26301;42.832;23.918;2022-11-15T01:17:00;93727.81;;;-0.39;100.00
40592;BME280;26301;42.832;23.918;2022-11-15T01:19:26;93718.91;;;-0.43;100.00
40592;BME280;26301;42.832;23.918;2022-11-15T01:22:01;93723.69;;;-0.40;100.00
40592;BME280;26301;42.832;23.918;2022-11-15T01:24:31;93712.38;;;-0.54;100.00
40592;BME280;26301;42.832;23.918;2022-11-15T01:26:57;93712.88;;;-0.42;100.00
40592;BME280;26301;42.832;23.918;2022-11-15T01:29:22;93689.03;;;-0.58;100.00
40592;BME280;26301;42.832;23.918;2022-11-15T01:31:48;93689.22;;;-0.59;100.00
40592;BME280;26301;42.832;23.918;2022-11-15T01:34:14;93722.94;;;-0.33;100.00
40592;BME280;26301;42.832;23.918;2022-11-15T01:36:40;93701.16;;;-0.43;100.00
40592;BME280;26301;42.832;23.918;2022-11-15T01:39:06;93725.47;;;-0.25;100.00
40592;BME280;26301;42.832;23.918;2022-11-15T01:41:33;93705.00;;;-0.31;100.00
40592;BME280;26301;42.832;23.918;2022-11-15T01:47:24;93697.53;;;-0.33;100.00
40592;BME280;26301;42.832;23.918;2022-11-15T01:50:02;93687.34;;;-0.41;100.00
40592;BME280;26301;42.832;23.918;2022-11-15T01:52:31;93709.31;;;-0.24;100.00
40592;BME280;26301;42.832;23.918;2022-11-15T01:57:40;93691.84;;;-0.27;100.00
40592;BME280;26301;42.832;23.918;2022-11-15T02:00:08;93718.84;;;-0.09;100.00
40592;BME280;26301;42.832;23.918;2022-11-15T02:02:36;93710.59;;;-0.11;100.00
40592;BME280;26301;42.832;23.918;2022-11-15T02:05:03;93717.94;;;0.00;100.00
40592;BME280;26301;42.832;23.918;2022-11-15T02:07:31;93721.41;;;0.07;100.00
40592;BME280;26301;42.832;23.918;2022-11-15T02:10:04;93692.19;;;-0.05;100.00
40592;BME280;26301;42.832;23.918;2022-11-15T02:12:32;93710.28;;;0.08;100.00
40592;BME280;26301;42.832;23.918;2022-11-15T02:14:59;93709.97;;;0.11;100.00
40592;BME280;26301;42.832;23.918;2022-11-15T02:17:30;93709.66;;;0.14;100.00
40592;BME280;26301;42.832;23.918;2022-11-15T02:28:50;93695.69;;;0.27;100.00
40592;BME280;26301;42.832;23.918;2022-11-15T02:39:32;93704.59;;;0.47;100.00
40592;BME280;26301;42.832;23.918;2022-11-15T02:42:08;93670.63;;;0.32;100.00
40592;BME280;26301;42.832;23.918;2022-11-15T02:44:57;93690.13;;;0.48;100.00
40592;BME280;26301;42.832;23.918;2022-11-15T02:47:26;93695.88;;;0.58;100.00
40592;BME280;26301;42.832;23.918;2022-11-15T02:49:58;93660.63;;;0.30;100.00
40592;BME280;26301;42.832;23.918;2022-11-15T02:52:25;93696.34;;;0.53;100.00
40592;BME280;26301;42.832;23.918;2022-11-15T02:54:54;93669.66;;;0.41;100.00
40592;BME280;26301;42.832;23.918;2022-11-15T03:05:47;93693.78;;;0.53;100.00
40592;BME280;26301;42.832;23.918;2022-11-15T03:08:32;93691.25;;;0.53;100.00
40592;BME280;26301;42.832;23.918;2022-11-15T03:11:13;93686.94;;;0.54;100.00
40592;BME280;26301;42.832;23.918;2022-11-15T03:16:34;93661.06;;;0.42;100.00
40592;BME280;26301;42.832;23.918;2022-11-15T03:21:44;93676.63;;;0.55;100.00
40592;BME280;26301;42.832;23.918;2022-11-15T03:24:12;93672.50;;;0.54;100.00
40592;BME280;26301;42.832;23.918;2022-11-15T03:26:41;93666.94;;;0.51;100.00
40592;BME280;26301;42.832;23.918;2022-11-15T03:29:19;93663.59;;;0.50;100.00
40592;BME280;26301;42.832;23.918;2022-11-15T03:31:51;93661.53;;;0.54;100.00
40592;BME280;26301;42.832;23.918;2022-11-15T03:34:29;93639.78;;;0.43;100.00
40592;BME280;26301;42.832;23.918;2022-11-15T03:36:57;93669.78;;;0.64;100.00
40592;BME280;26301;42.832;23.918;2022-11-15T03:39:26;93653.91;;;0.62;100.00
40592;BME280;26301;42.832;23.918;2022-11-15T03:42:26;93628.84;;;0.42;100.00
40592;BME280;26301;42.832;23.918;2022-11-15T03:47:34;93644.69;;;0.53;100.00
40592;BME280;26301;42.832;23.918;2022-11-15T03:50:09;93617.91;;;0.34;100.00
40592;BME280;26301;42.832;23.918;2022-11-15T03:52:36;93640.09;;;0.48;100.00
40592;BME280;26301;42.832;23.918;2022-11-15T03:55:03;93638.50;;;0.55;100.00
40592;BME280;26301;42.832;23.918;2022-11-15T03:57:30;93638.50;;;0.47;99.83
40592;BME280;26301;42.832;23.918;2022-11-15T03:59:56;93632.31;;;0.41;99.75
40592;BME280;26301;42.832;23.918;2022-11-15T04:02:22;93625.66;;;0.40;98.39
40592;BME280;26301;42.832;23.918;2022-11-15T04:04:48;93596.94;;;0.23;97.57
40592;BME280;26301;42.832;23.918;2022-11-15T04:07:14;93612.50;;;0.29;98.09
40592;BME280;26301;42.832;23.918;2022-11-15T04:09:40;93622.66;;;0.29;96.15
40592;BME280;26301;42.832;23.918;2022-11-15T04:12:24;93601.06;;;0.08;96.13
40592;BME280;26301;42.832;23.918;2022-11-15T04:15:05;93604.91;;;0.04;96.06
40592;BME280;26301;42.832;23.918;2022-11-15T04:20:39;93620.47;;;0.09;96.39
40592;BME280;26301;42.832;23.918;2022-11-15T04:23:23;93613.47;;;0.03;95.66
40592;BME280;26301;42.832;23.918;2022-11-15T04:26:18;93616.00;;;0.03;95.24
40592;BME280;26301;42.832;23.918;2022-11-15T04:28:45;93588.56;;;-0.18;94.73
40592;BME280;26301;42.832;23.918;2022-11-15T04:31:29;93583.78;;;-0.29;94.12
40592;BME280;26301;42.832;23.918;2022-11-15T04:33:55;93611.88;;;-0.14;94.19
40592;BME280;26301;42.832;23.918;2022-11-15T04:36:21;93583.63;;;-0.36;93.93
40592;BME280;26301;42.832;23.918;2022-11-15T04:39:05;93595.19;;;-0.33;93.39
40592;BME280;26301;42.832;23.918;2022-11-15T04:41:31;93587.13;;;-0.45;93.35
40592;BME280;26301;42.832;23.918;2022-11-15T04:43:57;93609.97;;;-0.29;93.35
40592;BME280;26301;42.832;23.918;2022-11-15T04:46:24;93595.34;;;-0.43;93.20
40592;BME280;26301;42.832;23.918;2022-11-15T04:48:50;93609.31;;;-0.39;93.53
40592;BME280;26301;42.832;23.918;2022-11-15T04:51:16;93602.34;;;-0.45;93.01
40592;BME280;26301;42.832;23.918;2022-11-15T04:53:42;93575.50;;;-0.72;92.90
40592;BME280;26301;42.832;23.918;2022-11-15T04:56:08;93601.50;;;-0.62;92.15
40592;BME280;26301;42.832;23.918;2022-11-15T04:58:34;93606.72;;;-0.63;92.70
40592;BME280;26301;42.832;23.918;2022-11-15T05:01:20;93606.72;;;-0.72;93.31
40592;BME280;26301;42.832;23.918;2022-11-15T05:03:46;93599.56;;;-0.76;93.10
40592;BME280;26301;42.832;23.918;2022-11-15T05:06:30;93572.69;;;-1.03;93.33
40592;BME280;26301;42.832;23.918;2022-11-15T05:08:56;93590.44;;;-1.03;93.64
40592;BME280;26301;42.832;23.918;2022-11-15T05:11:22;93560.22;;;-1.39;95.01
40592;BME280;26301;42.832;23.918;2022-11-15T05:13:48;93565.88;;;-1.45;95.87
40592;BME280;26301;42.832;23.918;2022-11-15T05:16:14;93568.59;;;-1.39;95.95
40592;BME280;26301;42.832;23.918;2022-11-15T05:18:43;93575.41;;;-1.47;95.51
40592;BME280;26301;42.832;23.918;2022-11-15T05:21:14;93600.94;;;-1.32;95.80
40592;BME280;26301;42.832;23.918;2022-11-15T05:23:41;93596.91;;;-1.51;97.20
40592;BME280;26301;42.832;23.918;2022-11-15T05:26:08;93575.59;;;-1.67;98.47
40592;BME280;26301;42.832;23.918;2022-11-15T05:28:34;93576.06;;;-1.71;99.10
40592;BME280;26301;42.832;23.918;2022-11-15T05:31:18;93575.78;;;-1.68;99.16
40592;BME280;26301;42.832;23.918;2022-11-15T05:33:44;93595.31;;;-1.52;100.00
40592;BME280;26301;42.832;23.918;2022-11-15T05:38:51;93581.22;;;-1.55;99.96
40592;BME280;26301;42.832;23.918;2022-11-15T05:41:20;93615.03;;;-1.38;100.00
40592;BME280;26301;42.832;23.918;2022-11-15T05:43:48;93592.97;;;-1.46;99.90
40592;BME280;26301;42.832;23.918;2022-11-15T05:46:15;93604.59;;;-1.35;99.63
40592;BME280;26301;42.832;23.918;2022-11-15T05:48:45;93600.66;;;-1.29;99.08
40592;BME280;26301;42.832;23.918;2022-11-15T05:51:14;93608.75;;;-1.26;99.25
40592;BME280;26301;42.832;23.918;2022-11-15T05:53:43;93577.47;;;-1.43;99.87
40592;BME280;26301;42.832;23.918;2022-11-15T05:56:10;93599.72;;;-1.28;100.00
40592;BME280;26301;42.832;23.918;2022-11-15T05:58:36;93570.34;;;-1.39;100.00
40592;BME280;26301;42.832;23.918;2022-11-15T06:01:02;93571.59;;;-1.43;100.00
40592;BME280;26301;42.832;23.918;2022-11-15T06:03:28;93595.63;;;-1.21;100.00
40592;BME280;26301;42.832;23.918;2022-11-15T06:05:54;93593.91;;;-1.12;100.00
40592;BME280;26301;42.832;23.918;2022-11-15T06:08:20;93589.53;;;-1.02;100.00
40592;BME280;26301;42.832;23.918;2022-11-15T06:10:46;93600.16;;;-0.90;100.00
40592;BME280;26301;42.832;23.918;2022-11-15T06:13:12;93606.25;;;-0.75;100.00
40592;BME280;26301;42.832;23.918;2022-11-15T06:15:37;93606.41;;;-0.68;100.00
40592;BME280;26301;42.832;23.918;2022-11-15T06:18:03;93612.13;;;-0.58;100.00
40592;BME280;26301;42.832;23.918;2022-11-15T06:20:29;93582.31;;;-0.64;100.00
40592;BME280;26301;42.832;23.918;2022-11-15T06:23:03;93580.59;;;-0.56;100.00
40592;BME280;26301;42.832;23.918;2022-11-15T06:25:29;93611.41;;;-0.26;100.00
40592;BME280;26301;42.832;23.918;2022-11-15T06:27:57;93600.75;;;-0.21;100.00
40592;BME280;26301;42.832;23.918;2022-11-15T06:30:25;93581.88;;;-0.19;100.00
40592;BME280;26301;42.832;23.918;2022-11-15T06:32:52;93574.41;;;-0.12;100.00
40592;BME280;26301;42.832;23.918;2022-11-15T06:35:23;93603.13;;;0.21;100.00
40592;BME280;26301;42.832;23.918;2022-11-15T06:37:49;93571.56;;;0.15;100.00
40592;BME280;26301;42.832;23.918;2022-11-15T06:40:18;93563.25;;;0.30;100.00
40592;BME280;26301;42.832;23.918;2022-11-15T06:42:44;93576.22;;;0.51;100.00
40592;BME280;26301;42.832;23.918;2022-11-15T06:45:10;93600.94;;;0.82;100.00
40592;BME280;26301;42.832;23.918;2022-11-15T06:47:44;93558.69;;;0.73;100.00
40592;BME280;26301;42.832;23.918;2022-11-15T06:50:11;93590.66;;;1.06;100.00
40592;BME280;26301;42.832;23.918;2022-11-15T06:52:36;93561.91;;;1.06;100.00
40592;BME280;26301;42.832;23.918;2022-11-15T06:55:02;93556.72;;;1.22;100.00
40592;BME280;26301;42.832;23.918;2022-11-15T06:57:27;93552.66;;;1.36;100.00
40592;BME280;26301;42.832;23.918;2022-11-15T06:59:53;93555.63;;;1.48;100.00
40592;BME280;26301;42.832;23.918;2022-11-15T07:02:19;93552.88;;;1.49;100.00
40592;BME280;26301;42.832;23.918;2022-11-15T07:04:45;93568.16;;;1.72;100.00
40592;BME280;26301;42.832;23.918;2022-11-15T07:07:11;93541.63;;;1.67;100.00
40592;BME280;26301;42.832;23.918;2022-11-15T07:09:37;93566.06;;;1.99;100.00
40592;BME280;26301;42.832;23.918;2022-11-15T07:12:02;93568.53;;;2.22;100.00
40592;BME280;26301;42.832;23.918;2022-11-15T07:14:28;93558.81;;;2.40;100.00
40592;BME280;26301;42.832;23.918;2022-11-15T07:16:54;93537.00;;;2.52;100.00
40592;BME280;26301;42.832;23.918;2022-11-15T07:19:20;93550.66;;;2.74;100.00
40592;BME280;26301;42.832;23.918;2022-11-15T07:21:45;93530.13;;;2.83;100.00
40592;BME280;26301;42.832;23.918;2022-11-15T07:24:12;93558.94;;;3.13;100.00
40592;BME280;26301;42.832;23.918;2022-11-15T07:26:37;93553.75;;;3.21;100.00
40592;BME280;26301;42.832;23.918;2022-11-15T07:29:03;93536.84;;;3.20;100.00
40592;BME280;26301;42.832;23.918;2022-11-15T07:31:29;93532.50;;;3.35;100.00
40592;BME280;26301;42.832;23.918;2022-11-15T07:33:54;93528.06;;;3.44;100.00
40592;BME280;26301;42.832;23.918;2022-11-15T07:36:20;93549.97;;;3.75;100.00
40592;BME280;26301;42.832;23.918;2022-11-15T07:38:46;93546.38;;;3.69;100.00
40592;BME280;26301;42.832;23.918;2022-11-15T07:41:12;93551.47;;;3.90;100.00
40592;BME280;26301;42.832;23.918;2022-11-15T07:43:37;93550.50;;;3.92;100.00
40592;BME280;26301;42.832;23.918;2022-11-15T07:46:07;93519.53;;;3.80;100.00
40592;BME280;26301;42.832;23.918;2022-11-15T07:48:35;93525.16;;;3.97;100.00
40592;BME280;26301;42.832;23.918;2022-11-15T07:51:01;93521.75;;;4.11;100.00
40592;BME280;26301;42.832;23.918;2022-11-15T07:53:27;93552.47;;;4.46;100.00
40592;BME280;26301;42.832;23.918;2022-11-15T07:55:52;93525.25;;;4.38;100.00
40592;BME280;26301;42.832;23.918;2022-11-15T07:58:19;93528.13;;;4.56;100.00
40592;BME280;26301;42.832;23.918;2022-11-15T08:00:44;93521.84;;;4.59;100.00
40592;BME280;26301;42.832;23.918;2022-11-15T08:03:12;93534.94;;;4.77;100.00
40592;BME280;26301;42.832;23.918;2022-11-15T08:05:39;93519.41;;;4.86;100.00
40592;BME280;26301;42.832;23.918;2022-11-15T08:08:06;93533.09;;;5.06;100.00
40592;BME280;26301;42.832;23.918;2022-11-15T08:10:32;93540.63;;;5.21;100.00
40592;BME280;26301;42.832;23.918;2022-11-15T08:13:06;93542.81;;;5.31;100.00
40592;BME280;26301;42.832;23.918;2022-11-15T08:15:34;93534.16;;;5.38;100.00
40592;BME280;26301;42.832;23.918;2022-11-15T08:18:02;93539.50;;;5.50;100.00
40592;BME280;26301;42.832;23.918;2022-11-15T08:20:30;93515.50;;;5.58;100.00
40592;BME280;26301;42.832;23.918;2022-11-15T08:23:02;93537.59;;;5.79;96.91
40592;BME280;26301;42.832;23.918;2022-11-15T08:25:30;93533.66;;;5.83;97.42
40592;BME280;26301;42.832;23.918;2022-11-15T08:27:57;93540.00;;;5.87;95.98
40592;BME280;26301;42.832;23.918;2022-11-15T08:30:24;93515.13;;;5.81;93.55
40592;BME280;26301;42.832;23.918;2022-11-15T08:32:51;93518.66;;;5.80;94.84
40592;BME280;26301;42.832;23.918;2022-11-15T08:35:18;93508.00;;;5.83;94.63
40592;BME280;26301;42.832;23.918;2022-11-15T08:37:44;93498.75;;;5.75;94.80
40592;BME280;26301;42.832;23.918;2022-11-15T08:40:11;93521.84;;;5.95;95.45
40592;BME280;26301;42.832;23.918;2022-11-15T08:42:39;93521.09;;;6.08;93.75
40592;BME280;26301;42.832;23.918;2022-11-15T08:45:07;93527.38;;;6.12;95.50
40592;BME280;26301;42.832;23.918;2022-11-15T08:47:33;93516.31;;;6.25;96.42
40592;BME280;26301;42.832;23.918;2022-11-15T08:49:58;93518.50;;;6.28;95.09
40592;BME280;26301;42.832;23.918;2022-11-15T08:52:24;93519.88;;;6.37;95.30
40592;BME280;26301;42.832;23.918;2022-11-15T08:54:50;93503.69;;;6.36;95.71
40592;BME280;26301;42.832;23.918;2022-11-15T08:57:16;93479.03;;;6.35;95.63
40592;BME280;26301;42.832;23.918;2022-11-15T08:59:42;93480.94;;;6.47;94.75
40592;BME280;26301;42.832;23.918;2022-11-15T09:02:12;93477.78;;;6.51;95.28
40592;BME280;26301;42.832;23.918;2022-11-15T09:04:43;93473.03;;;6.61;95.92
40592;BME280;26301;42.832;23.918;2022-11-15T09:07:10;93484.03;;;6.75;96.89
40592;BME280;26301;42.832;23.918;2022-11-15T09:09:36;93485.38;;;6.91;97.07
40592;BME280;26301;42.832;23.918;2022-11-15T09:12:03;93451.00;;;6.85;91.70
40592;BME280;26301;42.832;23.918;2022-11-15T09:14:29;93480.13;;;7.18;96.04
40592;BME280;26301;42.832;23.918;2022-11-15T09:16:55;93443.03;;;7.07;94.86
40592;BME280;26301;42.832;23.918;2022-11-15T09:19:21;93434.69;;;7.12;95.06
40592;BME280;26301;42.832;23.918;2022-11-15T09:21:47;93462.16;;;7.49;99.69
40592;BME280;26301;42.832;23.918;2022-11-15T09:24:13;93458.88;;;7.67;95.16
40592;BME280;26301;42.832;23.918;2022-11-15T09:26:39;93444.91;;;7.82;95.03
40592;BME280;26301;42.832;23.918;2022-11-15T09:29:05;93448.16;;;7.95;98.85
40592;BME280;26301;42.832;23.918;2022-11-15T09:31:32;93440.00;;;7.98;98.85
40592;BME280;26301;42.832;23.918;2022-11-15T09:33:57;93442.00;;;8.21;94.71
40592;BME280;26301;42.832;23.918;2022-11-15T09:36:23;93441.19;;;8.46;91.67
40592;BME280;26301;42.832;23.918;2022-11-15T09:38:49;93446.25;;;8.71;89.05
40592;BME280;26301;42.832;23.918;2022-11-15T09:48:56;93433.34;;;8.89;83.79
40592;BME280;26301;42.832;23.918;2022-11-15T09:51:35;93411.25;;;8.82;80.68
40592;BME280;26301;42.832;23.918;2022-11-15T09:56:47;93417.94;;;9.01;82.03
40592;BME280;26301;42.832;23.918;2022-11-15T10:05:03;93395.72;;;8.88;78.21
40592;BME280;26301;42.832;23.918;2022-11-15T10:13:25;93414.72;;;9.06;81.28
40592;BME280;26301;42.832;23.918;2022-11-15T10:15:53;93397.88;;;8.91;80.99
40592;BME280;26301;42.832;23.918;2022-11-15T10:20:59;93380.75;;;8.97;79.33
40592;BME280;26301;42.832;23.918;2022-11-15T10:23:26;93393.09;;;9.07;80.86
40592;BME280;26301;42.832;23.918;2022-11-15T10:25:58;93401.25;;;9.04;79.05
40592;BME280;26301;42.832;23.918;2022-11-15T10:28:30;93387.50;;;9.10;79.49
40592;BME280;26301;42.832;23.918;2022-11-15T10:31:00;93370.47;;;9.09;79.32
40592;BME280;26301;42.832;23.918;2022-11-15T10:33:37;93358.03;;;9.06;79.33
40592;BME280;26301;42.832;23.918;2022-11-15T10:41:21;93347.44;;;9.37;79.89
40592;BME280;26301;42.832;23.918;2022-11-15T10:46:40;93359.59;;;9.60;78.11
40592;BME280;26301;42.832;23.918;2022-11-15T10:49:23;93330.00;;;9.51;78.58
40592;BME280;26301;42.832;23.918;2022-11-15T10:55:01;93349.63;;;9.88;83.12
40592;BME280;26301;42.832;23.918;2022-11-15T10:57:33;93344.09;;;10.07;78.92
40592;BME280;26301;42.832;23.918;2022-11-15T11:08:20;93341.47;;;10.43;71.88
40592;BME280;26301;42.832;23.918;2022-11-15T11:11:00;93337.66;;;10.45;71.26
40592;BME280;26301;42.832;23.918;2022-11-15T11:13:29;93308.16;;;10.41;70.91
40592;BME280;26301;42.832;23.918;2022-11-15T11:16:09;93304.66;;;10.47;69.77
40592;BME280;26301;42.832;23.918;2022-11-15T11:37:51;93291.50;;;10.94;68.41
40592;BME280;26301;42.832;23.918;2022-11-15T11:48:50;93271.50;;;11.02;67.81
40592;BME280;26301;42.832;23.918;2022-11-15T11:51:27;93260.38;;;11.01;65.98
40592;BME280;26301;42.832;23.918;2022-11-15T11:53:59;93247.88;;;10.98;66.07
40592;BME280;26301;42.832;23.918;2022-11-15T11:56:31;93256.84;;;11.07;66.29
40592;BME280;26301;42.832;23.918;2022-11-15T11:59:21;93254.41;;;11.17;65.49
40592;BME280;26301;42.832;23.918;2022-11-15T12:01:48;93243.28;;;11.00;67.38
40592;BME280;26301;42.832;23.918;2022-11-15T12:09:21;93250.31;;;11.38;63.20
40592;BME280;26301;42.832;23.918;2022-11-15T12:15:09;93243.03;;;11.35;64.20
40592;BME280;26301;42.832;23.918;2022-11-15T12:17:38;93240.06;;;11.43;64.82
40592;BME280;26301;42.832;23.918;2022-11-15T12:20:30;93246.31;;;11.48;63.13
40592;BME280;26301;42.832;23.918;2022-11-15T12:23:20;93221.19;;;11.26;62.88
40592;BME280;26301;42.832;23.918;2022-11-15T12:28:49;93244.69;;;11.25;65.90
40592;BME280;26301;42.832;23.918;2022-11-15T12:31:29;93175.94;;;10.73;67.56
40592;BME280;26301;42.832;23.918;2022-11-15T12:33:58;93228.56;;;11.01;68.37
40592;BME280;26301;42.832;23.918;2022-11-15T12:41:39;93235.13;;;11.08;67.09
40592;BME280;26301;42.832;23.918;2022-11-15T12:44:11;93208.88;;;10.83;69.37
40592;BME280;26301;42.832;23.918;2022-11-15T12:59:57;93227.34;;;10.58;72.08
40592;BME280;26301;42.832;23.918;2022-11-15T13:02:35;93240.50;;;10.56;71.49
40592;BME280;26301;42.832;23.918;2022-11-15T13:29:04;93237.91;;;9.75;75.62
40592;BME280;26301;42.832;23.918;2022-11-15T13:31:34;93178.22;;;9.31;76.22
40592;BME280;26301;42.832;23.918;2022-11-15T13:34:13;93222.69;;;9.62;76.69
40592;BME280;26301;42.832;23.918;2022-11-15T13:36:41;93207.59;;;9.42;76.66
40592;BME280;26301;42.832;23.918;2022-11-15T13:39:26;93227.63;;;9.52;77.30
40592;BME280;26301;42.832;23.918;2022-11-15T13:41:52;93218.09;;;9.41;78.16
40592;BME280;26301;42.832;23.918;2022-11-15T13:44:29;93221.13;;;9.37;78.52
40592;BME280;26301;42.832;23.918;2022-11-15T13:49:33;93191.00;;;9.14;78.52
40592;BME280;26301;42.832;23.918;2022-11-15T13:52:00;93214.41;;;9.25;78.96
40592;BME280;26301;42.832;23.918;2022-11-15T13:54:33;93211.97;;;9.18;79.13
40592;BME280;26301;42.832;23.918;2022-11-15T13:57:11;93199.84;;;9.19;78.63
40592;BME280;26301;42.832;23.918;2022-11-15T13:59:49;93175.88;;;8.95;78.94
40592;BME280;26301;42.832;23.918;2022-11-15T14:02:29;93218.22;;;9.10;79.03
40592;BME280;26301;42.832;23.918;2022-11-15T14:05:02;93219.13;;;9.04;78.90
40592;BME280;26301;42.832;23.918;2022-11-15T14:07:28;93225.16;;;8.98;79.27
40592;BME280;26301;42.832;23.918;2022-11-15T14:09:54;93193.09;;;8.70;79.92
40592;BME280;26301;42.832;23.918;2022-11-15T14:14:48;93215.38;;;8.77;79.89
40592;BME280;26301;42.832;23.918;2022-11-15T14:19:56;93195.53;;;8.54;79.59
40592;BME280;26301;42.832;23.918;2022-11-15T14:22:24;93216.91;;;8.54;80.07
40592;BME280;26301;42.832;23.918;2022-11-15T14:25:21;93214.75;;;8.51;80.22
40592;BME280;26301;42.832;23.918;2022-11-15T14:30:44;93203.94;;;8.31;79.60
40592;BME280;26301;42.832;23.918;2022-11-15T14:35:58;93213.53;;;8.23;79.97
40592;BME280;26301;42.832;23.918;2022-11-15T14:38:27;93186.81;;;7.94;80.27
40592;BME280;26301;42.832;23.918;2022-11-15T14:40:53;93206.59;;;7.94;80.27
40592;BME280;26301;42.832;23.918;2022-11-15T14:43:20;93197.91;;;7.76;80.04
40592;BME280;26301;42.832;23.918;2022-11-15T14:45:45;93203.69;;;7.72;80.01
40592;BME280;26301;42.832;23.918;2022-11-15T14:48:11;93187.41;;;7.60;79.75
40592;BME280;26301;42.832;23.918;2022-11-15T14:50:37;93185.78;;;7.47;80.15
40592;BME280;26301;42.832;23.918;2022-11-15T14:53:03;93220.06;;;7.59;79.70
40592;BME280;26301;42.832;23.918;2022-11-15T14:55:32;93214.59;;;7.49;79.56
40592;BME280;26301;42.832;23.918;2022-11-15T14:58:01;93214.31;;;7.39;79.45
40592;BME280;26301;42.832;23.918;2022-11-15T15:00:30;93186.91;;;7.14;79.19
40592;BME280;26301;42.832;23.918;2022-11-15T15:02:56;93189.53;;;7.07;78.83
40592;BME280;26301;42.832;23.918;2022-11-15T15:05:34;93217.38;;;7.10;79.19
40592;BME280;26301;42.832;23.918;2022-11-15T15:08:00;93224.19;;;6.98;79.44
40592;BME280;26301;42.832;23.918;2022-11-15T15:10:37;93220.31;;;6.89;79.09
40592;BME280;26301;42.832;23.918;2022-11-15T15:13:05;93206.56;;;6.77;78.76
40592;BME280;26301;42.832;23.918;2022-11-15T15:15:36;93218.31;;;6.66;79.04
40592;BME280;26301;42.832;23.918;2022-11-15T15:18:04;93212.88;;;6.56;78.97
40592;BME280;26301;42.832;23.918;2022-11-15T15:20:38;93195.03;;;6.36;79.09
40592;BME280;26301;42.832;23.918;2022-11-15T15:23:05;93211.56;;;6.40;79.42
40592;BME280;26301;42.832;23.918;2022-11-15T15:25:33;93182.16;;;6.11;79.73
40592;BME280;26301;42.832;23.918;2022-11-15T15:28:00;93196.75;;;6.10;80.04
40592;BME280;26301;42.832;23.918;2022-11-15T15:30:27;93188.16;;;5.91;79.75
40592;BME280;26301;42.832;23.918;2022-11-15T15:32:53;93211.97;;;6.05;79.13
40592;BME280;26301;42.832;23.918;2022-11-15T15:35:20;93193.31;;;5.85;79.88
40592;BME280;26301;42.832;23.918;2022-11-15T15:37:47;93211.84;;;5.87;79.86
40592;BME280;26301;42.832;23.918;2022-11-15T15:40:21;93207.75;;;5.72;80.94
40592;BME280;26301;42.832;23.918;2022-11-15T15:42:48;93208.97;;;5.63;83.15
40592;BME280;26301;42.832;23.918;2022-11-15T15:45:17;93194.63;;;5.49;83.50
40592;BME280;26301;42.832;23.918;2022-11-15T15:47:43;93194.25;;;5.45;83.82
40592;BME280;26301;42.832;23.918;2022-11-15T15:50:31;93202.13;;;5.44;83.28
40592;BME280;26301;42.832;23.918;2022-11-15T15:52:59;93187.59;;;5.31;83.63
40592;BME280;26301;42.832;23.918;2022-11-15T15:55:26;93191.94;;;5.24;84.43
40592;BME280;26301;42.832;23.918;2022-11-15T15:57:52;93191.59;;;5.07;84.31
40592;BME280;26301;42.832;23.918;2022-11-15T16:00:19;93185.50;;;4.88;84.82
40592;BME280;26301;42.832;23.918;2022-11-15T16:02:46;93167.22;;;4.65;85.76
40592;BME280;26301;42.832;23.918;2022-11-15T16:05:12;93183.94;;;4.67;86.02
40592;BME280;26301;42.832;23.918;2022-11-15T16:07:39;93156.03;;;4.46;86.00